Time;durP1;ratioP1;P1;durP2;ratioP2;P2;SDS_P1;SDS_P2;PMS_P1;PMS_P2;Temp;Humidity;BMP_temperature;BMP_pressure;BME280_temperature;BME280_humidity;BME280_pressure;Samples;Min_cycle;Max_cycle;Signal;HPM_P1;HPM_P2
2024/01/31 00:00:19;;;;;;;0.32;0.32;;;;;;;10.79;100.00;102700.97;5017915;28;20064;-50
2024/01/31 00:02:46;;;;;;;0.35;0.20;;;;;;;10.94;100.00;102694.28;5018502;28;20057;-48
2024/01/31 00:05:14;;;;;;;4.32;0.30;;;;;;;10.89;100.00;102694.72;5022612;28;20057;-49
2024/01/31 00:07:41;;;;;;;0.30;0.20;;;;;;;10.92;100.00;102690.94;5016999;28;20463;-51
2024/01/31 00:10:07;;;;;;;0.30;0.30;;;;;;;10.95;100.00;102703.09;5019633;28;20118;-49
2024/01/31 00:12:32;;;;;;;1.33;0.40;;;;;;;10.92;100.00;102693.59;5014973;28;20037;-47
2024/01/31 00:14:57;;;;;;;0.73;0.35;;;;;;;10.91;100.00;102691.91;5019711;28;20053;-48
2024/01/31 00:17:22;;;;;;;0.85;0.13;;;;;;;10.94;100.00;102682.81;5018814;28;20483;-49
2024/01/31 00:19:48;;;;;;;0.55;0.28;;;;;;;10.94;100.00;102680.16;5015703;28;20146;-48
2024/01/31 00:22:13;;;;;;;5.78;0.30;;;;;;;10.99;100.00;102675.28;5014341;28;20029;-48
2024/01/31 00:24:38;;;;;;;0.30;0.13;;;;;;;10.95;100.00;102669.44;5017665;28;20049;-50
2024/01/31 00:27:04;;;;;;;5.57;0.52;;;;;;;10.95;100.00;102671.25;5019475;28;20037;-47
2024/01/31 00:29:29;;;;;;;0.30;0.30;;;;;;;10.84;100.00;102672.19;5018912;28;20041;-48
2024/01/31 00:31:55;;;;;;;0.28;0.20;;;;;;;10.81;100.00;102670.66;5013794;28;20118;-47
2024/01/31 00:34:20;;;;;;;1.05;0.60;;;;;;;10.73;100.00;102664.38;5015064;28;20033;-48
2024/01/31 00:36:45;;;;;;;1.00;0.10;;;;;;;10.63;100.00;102656.41;5013168;28;20104;-47
2024/01/31 00:39:10;;;;;;;0.57;0.25;;;;;;;10.65;100.00;102652.63;5013101;28;20084;-51
2024/01/31 00:41:36;;;;;;;0.22;0.13;;;;;;;10.64;100.00;102640.38;5019105;28;20060;-47
2024/01/31 00:44:01;;;;;;;0.20;0.13;;;;;;;10.07;100.00;102636.59;5017435;28;20113;-47
2024/01/31 00:46:27;;;;;;;0.82;0.52;;;;;;;10.68;100.00;102635.59;5013625;28;20069;-46
2024/01/31 00:48:52;;;;;;;0.80;0.38;;;;;;;10.69;100.00;102622.22;5018296;28;20095;-47
2024/01/31 00:51:17;;;;;;;0.55;0.10;;;;;;;10.62;100.00;102607.81;5017402;28;20072;-49
2024/01/31 00:53:43;;;;;;;1.13;0.20;;;;;;;10.49;100.00;102609.91;5018321;28;20049;-49
2024/01/31 00:56:09;;;;;;;2.17;0.10;;;;;;;10.53;100.00;102600.69;5019630;28;20040;-47
2024/01/31 00:58:34;;;;;;;0.00;0.00;;;;;;;10.57;100.00;102596.78;5019041;28;20117;-46
2024/01/31 01:00:59;;;;;;;0.43;0.10;;;;;;;10.62;100.00;102589.25;5019608;28;20108;-49
2024/01/31 01:03:25;;;;;;;0.13;0.13;;;;;;;10.67;100.00;102581.72;5017874;28;20604;-47
2024/01/31 01:05:50;;;;;;;2.33;0.20;;;;;;;10.71;100.00;102584.91;5022280;28;20030;-47
2024/01/31 01:08:16;;;;;;;0.52;0.10;;;;;;;10.70;100.00;102570.81;5018860;28;20107;-49
2024/01/31 01:10:41;;;;;;;0.73;0.25;;;;;;;10.73;100.00;102568.88;5021056;28;20399;-47
2024/01/31 01:13:07;;;;;;;1.02;0.55;;;;;;;10.71;100.00;102563.69;5015797;28;20753;-47
2024/01/31 01:15:32;;;;;;;1.00;0.30;;;;;;;10.80;100.00;102568.16;5016814;28;20032;-48
2024/01/31 01:17:58;;;;;;;0.52;0.25;;;;;;;10.59;100.00;102564.84;5020058;28;20096;-45
2024/01/31 01:20:23;;;;;;;0.40;0.20;;;;;;;10.78;100.00;102562.16;5019557;28;20037;-50
2024/01/31 01:22:48;;;;;;;2.20;0.45;;;;;;;10.74;100.00;102559.91;5019079;28;20033;-46
2024/01/31 01:25:14;;;;;;;1.95;1.27;;;;;;;10.82;99.49;102563.56;5009225;28;20030;-49
2024/01/31 01:27:39;;;;;;;0.43;0.10;;;;;;;10.91;98.86;102561.84;5016267;28;20041;-46
2024/01/31 01:30:05;;;;;;;1.17;0.30;;;;;;;11.01;98.72;102552.06;5019854;28;20041;-47
2024/01/31 01:32:31;;;;;;;0.70;0.32;;;;;;;10.91;99.00;102554.72;5017866;28;20108;-50
2024/01/31 01:34:56;;;;;;;0.20;0.20;;;;;;;10.91;99.18;102560.03;5020266;28;20116;-47
2024/01/31 01:37:21;;;;;;;1.20;0.40;;;;;;;10.85;97.89;102559.78;5020080;28;20124;-48
2024/01/31 01:39:47;;;;;;;0.47;0.17;;;;;;;10.65;98.12;102565.09;5019510;28;20057;-49
2024/01/31 01:42:12;;;;;;;0.80;0.28;;;;;;;10.61;99.18;102561.06;5019813;28;20608;-49
2024/01/31 01:44:44;;;;;;;0.35;0.35;;;;;;;10.55;99.40;102577.53;5012130;28;20503;-50
2024/01/31 01:47:10;;;;;;;0.30;0.10;;;;;;;10.76;99.68;102577.38;5017717;28;20048;-48
2024/01/31 01:49:36;;;;;;;0.30;0.30;;;;;;;10.57;98.55;102575.56;5018852;28;20029;-49
2024/01/31 01:52:02;;;;;;;0.50;0.10;;;;;;;10.70;99.07;102576.13;5016869;28;20033;-46
2024/01/31 01:54:28;;;;;;;1.35;1.10;;;;;;;10.67;98.11;102576.41;5018584;28;20459;-46
2024/01/31 01:56:53;;;;;;;0.10;0.10;;;;;;;10.56;97.29;102573.03;5018347;28;20029;-48
2024/01/31 01:59:19;;;;;;;3.38;0.10;;;;;;;10.70;96.62;102569.97;5016672;28;20480;-46
2024/01/31 02:01:45;;;;;;;0.55;0.55;;;;;;;10.66;96.40;102580.06;5019990;28;20033;-49
2024/01/31 02:04:10;;;;;;;2.10;0.50;;;;;;;10.72;95.62;102589.25;5017531;28;20037;-48
2024/01/31 02:06:35;;;;;;;0.13;0.10;;;;;;;10.90;96.07;102587.56;5019687;28;20474;-49
2024/01/31 02:09:03;;;;;;;0.40;0.10;;;;;;;10.78;96.73;102577.25;5019075;28;20045;-47
2024/01/31 02:11:30;;;;;;;0.75;0.10;;;;;;;10.60;97.39;102564.69;5012713;28;20497;-49
2024/01/31 02:13:57;;;;;;;0.25;0.20;;;;;;;10.66;97.12;102568.56;5014505;28;20189;-49
2024/01/31 02:16:22;;;;;;;0.40;0.10;;;;;;;10.63;98.14;102568.88;5011541;28;20343;-50
2024/01/31 02:18:47;;;;;;;0.68;0.15;;;;;;;10.62;98.12;102573.34;5015367;28;20096;-48
2024/01/31 02:21:16;;;;;;;0.65;0.30;;;;;;;10.63;98.45;102563.56;5016412;28;20045;-46
2024/01/31 02:23:41;;;;;;;1.55;0.10;;;;;;;10.77;98.08;102562.31;5011324;28;20030;-52
2024/01/31 02:26:06;;;;;;;0.55;0.32;;;;;;;10.70;97.68;102559.38;5012878;28;20040;-49
2024/01/31 02:28:31;;;;;;;0.63;0.17;;;;;;;10.76;97.91;102552.66;5013887;28;20025;-46
2024/01/31 02:30:57;;;;;;;0.25;0.00;;;;;;;10.66;98.11;102556.19;5012764;28;20113;-46
2024/01/31 02:33:22;;;;;;;1.58;1.48;;;;;;;10.57;97.82;102562.31;5015983;28;20056;-51
2024/01/31 02:35:48;;;;;;;0.10;0.10;;;;;;;10.65;97.37;102551.81;5017373;28;20029;-50
2024/01/31 02:38:13;;;;;;;0.25;0.20;;;;;;;10.62;97.22;102545.97;5014876;28;20112;-52
2024/01/31 02:40:38;;;;;;;1.42;0.10;;;;;;;10.69;98.08;102547.09;5021280;28;20234;-50
2024/01/31 02:43:04;;;;;;;0.20;0.10;;;;;;;10.72;97.75;102536.19;5013113;28;20040;-52
2024/01/31 02:45:29;;;;;;;2.78;0.00;;;;;;;10.69;98.07;102539.97;5017082;28;20044;-47
2024/01/31 02:47:54;;;;;;;0.10;0.10;;;;;;;10.72;98.47;102535.38;5013653;28;20041;-49
2024/01/31 02:50:20;;;;;;;1.20;0.43;;;;;;;10.77;98.22;102533.13;5014355;28;20043;-49
2024/01/31 02:52:45;;;;;;;0.40;0.20;;;;;;;10.81;98.03;102530.00;5016043;28;20052;-50
2024/01/31 02:55:10;;;;;;;0.28;0.25;;;;;;;10.81;98.14;102526.53;5013826;28;20060;-46
2024/01/31 02:57:36;;;;;;;0.15;0.15;;;;;;;10.82;97.90;102525.56;5014645;28;20099;-49
2024/01/31 03:00:04;;;;;;;0.75;0.15;;;;;;;10.73;97.92;102526.41;5017981;28;20087;-51
2024/01/31 03:02:29;;;;;;;1.33;0.28;;;;;;;10.63;97.66;102531.72;5018823;28;20879;-47
2024/01/31 03:04:54;;;;;;;0.30;0.10;;;;;;;10.68;97.45;102519.69;5014853;28;20128;-50
2024/01/31 03:07:20;;;;;;;0.22;0.20;;;;;;;10.70;97.48;102528.38;5016625;28;20467;-48
2024/01/31 03:09:45;;;;;;;1.45;0.00;;;;;;;10.74;97.67;102523.63;5012854;28;20494;-46
2024/01/31 03:12:10;;;;;;;0.57;0.57;;;;;;;10.92;97.63;102529.03;5014544;28;20050;-47
2024/01/31 03:14:36;;;;;;;2.45;0.20;;;;;;;10.86;97.24;102517.16;5017679;28;20040;-50
2024/01/31 03:17:02;;;;;;;0.38;0.32;;;;;;;10.72;96.38;102519.44;5018557;28;20051;-47
2024/01/31 03:19:28;;;;;;;1.50;0.17;;;;;;;10.67;94.87;102520.69;5015446;28;20467;-46
2024/01/31 03:21:54;;;;;;;2.90;0.10;;;;;;;10.81;95.78;102523.88;5019863;28;20036;-50
2024/01/31 03:24:20;;;;;;;1.65;0.20;;;;;;;10.72;95.01;102514.97;5014845;28;20415;-46
2024/01/31 03:26:46;;;;;;;0.10;0.10;;;;;;;10.79;95.17;102523.19;5015547;28;20030;-48
2024/01/31 03:29:11;;;;;;;0.75;0.00;;;;;;;10.67;95.05;102518.03;5021552;28;20109;-48
2024/01/31 03:31:37;;;;;;;0.00;0.00;;;;;;;10.57;94.32;102513.72;5021335;28;20029;-46
2024/01/31 03:34:02;;;;;;;0.00;0.00;;;;;;;10.74;94.69;102506.84;5023686;28;20120;-46
2024/01/31 03:36:27;;;;;;;0.35;0.15;;;;;;;10.68;94.25;102497.66;5020853;28;20029;-48
2024/01/31 03:38:55;;;;;;;0.10;0.03;;;;;;;10.62;94.50;102490.28;5020804;28;20072;-46
2024/01/31 03:41:20;;;;;;;1.45;0.22;;;;;;;10.60;94.46;102498.34;5018015;28;20032;-46
2024/01/31 03:43:46;;;;;;;0.10;0.00;;;;;;;10.60;94.52;102478.97;5021226;28;20030;-49
2024/01/31 03:46:12;;;;;;;5.65;0.10;;;;;;;10.62;94.89;102480.50;5022656;28;20034;-49
2024/01/31 03:48:37;;;;;;;0.20;0.13;;;;;;;10.45;94.62;102476.75;5013913;28;21459;-47
2024/01/31 03:51:03;;;;;;;0.55;0.20;;;;;;;10.48;95.24;102476.47;5024274;28;20038;-50
2024/01/31 03:53:28;;;;;;;5.43;0.25;;;;;;;10.48;95.62;102476.47;5021179;28;20780;-48
2024/01/31 03:55:53;;;;;;;0.50;0.10;;;;;;;10.55;95.45;102466.13;5009701;28;20156;-48
2024/01/31 03:58:19;;;;;;;1.52;0.20;;;;;;;10.46;96.02;102446.59;5008064;28;20041;-46
2024/01/31 04:00:44;;;;;;;0.00;0.00;;;;;;;10.49;95.88;102445.47;5011259;28;20052;-46
2024/01/31 04:03:10;;;;;;;0.10;0.00;;;;;;;10.36;96.04;102431.69;5021012;28;20038;-49
2024/01/31 04:05:35;;;;;;;0.52;0.00;;;;;;;10.41;95.51;102442.69;5022157;28;20075;-51
2024/01/31 04:08:01;;;;;;;0.20;0.20;;;;;;;10.41;95.94;102448.00;5015211;28;20035;-50
2024/01/31 04:10:26;;;;;;;0.10;0.10;;;;;;;10.50;96.00;102443.66;5016380;28;20073;-49
2024/01/31 04:12:52;;;;;;;0.43;0.00;;;;;;;10.33;96.67;102453.19;5023440;28;20048;-49
2024/01/31 04:15:18;;;;;;;1.00;0.10;;;;;;;10.29;96.70;102460.56;5021448;28;20021;-46
2024/01/31 04:17:43;;;;;;;0.00;0.00;;;;;;;10.36;96.71;102468.81;5020368;28;20519;-46
2024/01/31 04:20:09;;;;;;;0.68;0.52;;;;;;;10.39;96.38;102468.53;5018243;28;20041;-46
2024/01/31 04:22:34;;;;;;;0.75;0.30;;;;;;;10.42;96.60;102470.88;5019439;28;20479;-47
2024/01/31 04:25:00;;;;;;;2.47;0.20;;;;;;;10.47;96.43;102469.47;5015115;28;20027;-46
2024/01/31 04:27:25;;;;;;;0.47;0.20;;;;;;;10.44;96.69;102468.94;5013423;28;20021;-47
2024/01/31 04:29:51;;;;;;;0.10;0.00;;;;;;;10.51;96.63;102471.84;5016791;28;20036;-47
2024/01/31 04:32:16;;;;;;;0.60;0.20;;;;;;;10.45;96.77;102470.59;5020652;28;21172;-46
2024/01/31 04:34:41;;;;;;;0.63;0.13;;;;;;;10.42;96.88;102463.75;5014344;28;20446;-47
2024/01/31 04:37:06;;;;;;;1.75;0.30;;;;;;;10.37;97.24;102467.81;5011444;28;20030;-48
2024/01/31 04:39:32;;;;;;;0.25;0.15;;;;;;;10.17;97.77;102465.16;5019371;28;20041;-47
2024/01/31 04:41:57;;;;;;;0.50;0.20;;;;;;;10.23;98.22;102455.81;5020300;28;20029;-45
2024/01/31 04:44:22;;;;;;;0.30;0.13;;;;;;;10.15;98.16;102475.06;5020684;28;20037;-47
2024/01/31 04:46:49;;;;;;;0.85;0.25;;;;;;;10.20;98.04;102474.66;5018289;28;20111;-47
2024/01/31 04:49:14;;;;;;;0.55;0.35;;;;;;;10.24;98.31;102471.56;5018297;28;20398;-46
2024/01/31 04:51:41;;;;;;;0.52;0.52;;;;;;;10.23;98.45;102472.53;5019361;28;20032;-46
2024/01/31 04:54:06;;;;;;;0.30;0.30;;;;;;;10.29;98.23;102460.56;5020496;28;20040;-49
2024/01/31 04:56:32;;;;;;;0.35;0.30;;;;;;;10.06;98.91;102457.31;5015451;28;20029;-48
2024/01/31 04:58:57;;;;;;;1.15;0.45;;;;;;;9.93;99.20;102472.66;5021488;28;20447;-47
2024/01/31 05:01:22;;;;;;;6.55;0.20;;;;;;;10.12;98.98;102480.66;5012580;28;20516;-47
2024/01/31 05:03:48;;;;;;;0.90;0.40;;;;;;;10.14;98.53;102489.28;5016505;28;20068;-46
2024/01/31 05:06:13;;;;;;;0.20;0.10;;;;;;;10.10;97.88;102498.50;5016868;28;20039;-46
2024/01/31 05:08:38;;;;;;;0.28;0.28;;;;;;;10.20;98.28;102488.75;5022320;28;20033;-48
2024/01/31 05:11:04;;;;;;;4.57;0.38;;;;;;;10.22;98.23;102491.22;5015335;28;20445;-47
2024/01/31 05:13:29;;;;;;;0.55;0.20;;;;;;;10.31;98.34;102486.94;5014662;28;20088;-49
2024/01/31 05:15:54;;;;;;;0.35;0.35;;;;;;;10.36;97.81;102487.38;5020326;28;20114;-46
2024/01/31 05:18:20;;;;;;;0.40;0.10;;;;;;;10.34;97.72;102490.16;5008784;28;20053;-49
2024/01/31 05:20:45;;;;;;;0.20;0.20;;;;;;;10.17;97.62;102480.22;5016831;28;20406;-47
2024/01/31 05:23:11;;;;;;;3.40;0.32;;;;;;;10.33;97.53;102474.41;5020493;28;20044;-46
2024/01/31 05:25:36;;;;;;;0.38;0.38;;;;;;;10.47;97.16;102480.09;5019380;28;20071;-49
2024/01/31 05:28:01;;;;;;;0.30;0.20;;;;;;;10.42;97.35;102481.50;5015563;28;20037;-47
2024/01/31 05:30:27;;;;;;;0.65;0.40;;;;;;;10.27;97.64;102473.09;5021206;28;20175;-45
2024/01/31 05:32:52;;;;;;;0.52;0.10;;;;;;;10.22;97.95;102486.78;5020588;28;20152;-50
2024/01/31 05:35:20;;;;;;;5.70;0.43;;;;;;;10.23;98.44;102485.78;5017539;28;20339;-49
2024/01/31 05:37:45;;;;;;;0.45;0.22;;;;;;;10.32;98.00;102491.25;5021043;28;20378;-50
2024/01/31 05:40:16;;;;;;;0.60;0.60;;;;;;;10.38;97.89;102488.91;5019533;28;20029;-49
2024/01/31 05:42:41;;;;;;;0.32;0.30;;;;;;;10.24;98.53;102500.72;5021959;28;20057;-46
2024/01/31 05:45:07;;;;;;;0.65;0.25;;;;;;;10.10;97.36;102501.16;5015457;28;20072;-48
2024/01/31 05:47:32;;;;;;;0.32;0.32;;;;;;;10.33;97.33;102491.13;5017647;28;20548;-47
2024/01/31 05:49:58;;;;;;;1.92;0.40;;;;;;;10.15;97.16;102487.47;5017424;28;20033;-47
2024/01/31 05:52:24;;;;;;;1.27;0.40;;;;;;;10.15;97.57;102474.22;5015227;28;20302;-46
2024/01/31 05:54:49;;;;;;;0.95;0.20;;;;;;;10.09;97.17;102474.78;5020582;28;20045;-47
2024/01/31 05:57:14;;;;;;;0.35;0.35;;;;;;;10.31;96.57;102463.91;5011894;28;20040;-46
2024/01/31 05:59:42;;;;;;;1.40;0.40;;;;;;;10.08;96.74;102468.63;5018323;28;20030;-48
2024/01/31 06:02:08;;;;;;;3.25;0.50;;;;;;;10.26;96.29;102463.47;5018674;28;20442;-47
2024/01/31 06:04:33;;;;;;;0.52;0.43;;;;;;;10.23;96.24;102459.28;5019021;28;20037;-47
2024/01/31 06:06:58;;;;;;;0.60;0.20;;;;;;;10.17;96.64;102435.13;5017782;28;20188;-50
2024/01/31 06:09:24;;;;;;;0.25;0.10;;;;;;;10.16;96.70;102426.34;5015384;28;20030;-49
2024/01/31 06:11:49;;;;;;;0.68;0.47;;;;;;;10.29;96.70;102414.66;5017320;28;20060;-49
2024/01/31 06:14:15;;;;;;;1.85;0.85;;;;;;;10.21;97.05;102424.13;5018323;28;20033;-50
2024/01/31 06:16:40;;;;;;;2.65;0.20;;;;;;;10.29;97.20;102430.56;5015392;28;20026;-49
2024/01/31 06:19:08;;;;;;;1.13;0.20;;;;;;;10.34;96.88;102436.28;5018788;28;20285;-51
2024/01/31 06:21:34;;;;;;;0.73;0.40;;;;;;;10.11;97.08;102441.84;5019338;28;20025;-46
2024/01/31 06:23:59;;;;;;;0.43;0.05;;;;;;;10.16;96.56;102439.63;5016922;28;20051;-48
2024/01/31 06:26:24;;;;;;;0.40;0.40;;;;;;;10.21;96.77;102434.72;5019345;28;20560;-46
2024/01/31 06:28:50;;;;;;;0.85;0.20;;;;;;;10.25;97.11;102427.34;5015129;28;20079;-47
2024/01/31 06:31:26;;;;;;;1.95;0.10;;;;;;;10.20;97.01;102421.63;5019172;28;20112;-50
2024/01/31 06:33:51;;;;;;;0.38;0.25;;;;;;;10.19;97.31;102420.75;5016641;28;20061;-47
2024/01/31 06:36:18;;;;;;;2.30;0.47;;;;;;;9.95;98.18;102428.31;5018309;28;20170;-47
2024/01/31 06:38:44;;;;;;;0.77;0.32;;;;;;;10.02;98.17;102432.94;5012338;28;20040;-48
2024/01/31 06:41:13;;;;;;;1.60;0.68;;;;;;;10.15;97.61;102430.00;5013838;28;20030;-49
2024/01/31 06:43:38;;;;;;;0.80;0.15;;;;;;;10.09;97.74;102424.41;5014103;28;20041;-47
2024/01/31 06:46:03;;;;;;;0.10;0.10;;;;;;;10.12;97.99;102429.41;5013186;28;20063;-48
2024/01/31 06:48:29;;;;;;;0.32;0.30;;;;;;;10.16;97.63;102421.06;5015886;28;20037;-46
2024/01/31 06:50:54;;;;;;;0.10;0.10;;;;;;;10.19;97.54;102427.88;5017892;28;20026;-45
2024/01/31 06:53:20;;;;;;;1.27;0.30;;;;;;;10.24;97.56;102426.47;5013507;28;20067;-47
2024/01/31 06:55:45;;;;;;;5.43;0.75;;;;;;;10.29;97.56;102414.66;5016438;28;20033;-45
2024/01/31 06:58:10;;;;;;;1.83;0.20;;;;;;;10.34;97.37;102413.25;5019675;28;20034;-47
2024/01/31 07:00:36;;;;;;;0.52;0.15;;;;;;;10.30;97.53;102408.38;5019284;28;20064;-47
2024/01/31 07:03:01;;;;;;;0.32;0.32;;;;;;;10.24;98.16;102418.53;5020939;28;20049;-45
2024/01/31 07:05:27;;;;;;;0.75;0.22;;;;;;;10.24;98.12;102407.09;5017650;28;20048;-51
2024/01/31 07:07:52;;;;;;;2.55;0.22;;;;;;;10.21;98.38;102394.13;5020168;28;20068;-47
2024/01/31 07:10:17;;;;;;;2.60;0.82;;;;;;;10.16;98.81;102383.94;5021369;28;20045;-47
2024/01/31 07:12:43;;;;;;;1.25;0.45;;;;;;;10.07;99.21;102378.66;5016169;28;20025;-50
2024/01/31 07:15:10;;;;;;;4.85;0.50;;;;;;;9.93;99.79;102375.47;5024099;28;20036;-51
2024/01/31 07:17:35;;;;;;;0.10;0.10;;;;;;;9.98;100.00;102383.81;5018454;28;20029;-49
2024/01/31 07:20:00;;;;;;;2.10;0.22;;;;;;;10.02;100.00;102368.50;5022521;28;20107;-48
2024/01/31 07:22:26;;;;;;;2.72;0.52;;;;;;;9.97;100.00;102368.91;5016544;28;20112;-48
2024/01/31 07:24:51;;;;;;;1.83;0.65;;;;;;;10.01;100.00;102367.63;5022054;28;20045;-49
2024/01/31 07:27:16;;;;;;;0.45;0.45;;;;;;;9.98;100.00;102362.63;5021675;28;20215;-51
2024/01/31 07:29:48;;;;;;;0.63;0.63;;;;;;;10.02;100.00;102355.25;5020253;28;20025;-48
2024/01/31 07:32:13;;;;;;;0.70;0.30;;;;;;;10.12;100.00;102366.66;5021488;28;20040;-50
2024/01/31 07:34:39;;;;;;;0.80;0.28;;;;;;;10.26;100.00;102374.16;5023582;28;20445;-49
2024/01/31 07:37:05;;;;;;;3.17;0.30;;;;;;;10.32;100.00;102372.78;5021732;28;20387;-49
2024/01/31 07:39:30;;;;;;;3.72;0.30;;;;;;;10.25;100.00;102369.84;5019765;28;20406;-50
2024/01/31 07:41:56;;;;;;;0.98;0.50;;;;;;;10.15;100.00;102370.84;5020299;28;20026;-48
2024/01/31 07:44:21;;;;;;;1.20;0.30;;;;;;;10.17;100.00;102366.22;5017595;28;20024;-48
2024/01/31 07:46:47;;;;;;;8.85;0.90;;;;;;;10.11;100.00;102367.63;5022141;28;20429;-47
2024/01/31 07:49:12;;;;;;;1.02;0.40;;;;;;;10.13;100.00;102368.31;5017748;28;20418;-49
2024/01/31 07:51:41;;;;;;;4.30;1.55;;;;;;;10.09;100.00;102361.63;5022329;28;20446;-49
2024/01/31 07:54:07;;;;;;;7.75;0.68;;;;;;;10.09;100.00;102353.69;5018700;28;20124;-45
2024/01/31 07:56:32;;;;;;;1.00;0.20;;;;;;;10.16;100.00;102340.69;5022441;28;20104;-44
2024/01/31 07:58:57;;;;;;;0.30;0.30;;;;;;;10.17;100.00;102342.38;5017506;28;20033;-44
2024/01/31 08:01:23;;;;;;;1.85;0.20;;;;;;;10.21;100.00;102346.41;5023995;28;20044;-48
2024/01/31 08:03:48;;;;;;;1.70;0.47;;;;;;;10.13;100.00;102348.94;5019399;28;20057;-44
2024/01/31 08:06:13;;;;;;;1.33;0.30;;;;;;;10.06;100.00;102361.91;5023582;28;20057;-47
2024/01/31 08:08:39;;;;;;;1.67;1.15;;;;;;;10.19;100.00;102370.41;5020322;28;20033;-49
2024/01/31 08:11:05;;;;;;;0.70;0.00;;;;;;;10.04;100.00;102366.50;5019546;28;20050;-44
2024/01/31 08:13:30;;;;;;;0.50;0.40;;;;;;;10.25;100.00;102375.16;5018785;28;20041;-46
2024/01/31 08:15:55;;;;;;;2.15;0.30;;;;;;;10.31;100.00;102389.69;5020149;28;20064;-47
2024/01/31 08:18:21;;;;;;;2.05;0.20;;;;;;;10.32;100.00;102385.22;5015517;28;20068;-46
2024/01/31 08:20:46;;;;;;;2.08;0.20;;;;;;;10.24;100.00;102393.84;5016118;28;20029;-46
2024/01/31 08:23:11;;;;;;;0.60;0.60;;;;;;;10.18;100.00;102405.03;5016107;28;20094;-46
2024/01/31 08:25:37;;;;;;;0.63;0.30;;;;;;;10.31;100.00;102416.19;5019669;28;20044;-47
2024/01/31 08:28:02;;;;;;;0.80;0.30;;;;;;;10.38;100.00;102412.00;5019747;28;20095;-45
2024/01/31 08:30:27;;;;;;;1.23;0.68;;;;;;;10.44;100.00;102413.25;5022529;28;20053;-48
2024/01/31 08:32:53;;;;;;;3.42;0.30;;;;;;;10.51;100.00;102400.22;5008838;28;20072;-45
2024/01/31 08:35:18;;;;;;;0.90;0.40;;;;;;;10.37;100.00;102383.78;5011296;28;20461;-52
2024/01/31 08:37:43;;;;;;;1.08;0.30;;;;;;;10.07;100.00;102378.66;5013050;28;20577;-45
2024/01/31 08:40:10;;;;;;;5.97;0.85;;;;;;;10.25;100.00;102383.09;5019472;28;20490;-45
2024/01/31 08:42:38;;;;;;;0.43;0.20;;;;;;;10.36;100.00;102370.69;5013938;28;20040;-45
2024/01/31 08:45:05;;;;;;;1.05;0.30;;;;;;;10.34;100.00;102370.81;5009015;28;20030;-47
2024/01/31 08:47:31;;;;;;;0.57;0.45;;;;;;;10.28;100.00;102367.94;5020921;28;20026;-50
2024/01/31 08:49:56;;;;;;;1.98;0.88;;;;;;;10.42;100.00;102359.50;5013674;28;20594;-48
2024/01/31 08:52:22;;;;;;;0.25;0.22;;;;;;;10.54;100.00;102353.06;5021358;28;20114;-47
2024/01/31 08:54:47;;;;;;;1.17;0.22;;;;;;;10.46;100.00;102356.44;5018093;28;20095;-56
2024/01/31 08:57:12;;;;;;;0.90;0.30;;;;;;;10.51;100.00;102340.09;5018755;28;20060;-47
2024/01/31 08:59:38;;;;;;;1.48;0.38;;;;;;;10.43;100.00;102329.38;5033249;28;20071;-48
2024/01/31 09:02:03;;;;;;;0.80;0.25;;;;;;;10.57;100.00;102328.88;5030241;28;20116;-46
2024/01/31 09:04:29;;;;;;;0.20;0.00;;;;;;;10.48;100.00;102332.44;5030100;28;20111;-46
2024/01/31 09:06:54;;;;;;;0.55;0.30;;;;;;;10.12;100.00;102328.69;5031989;28;20073;-49
2024/01/31 09:09:19;;;;;;;1.75;0.25;;;;;;;10.47;100.00;102326.25;5027307;28;20839;-47
2024/01/31 09:11:45;;;;;;;0.65;0.25;;;;;;;10.36;100.00;102323.78;5007341;28;20068;-47
2024/01/31 09:14:11;;;;;;;0.10;0.10;;;;;;;10.61;100.00;102324.09;5017865;28;20457;-46
2024/01/31 09:16:37;;;;;;;1.70;0.40;;;;;;;10.57;100.00;102318.28;5020232;28;20025;-47
2024/01/31 09:19:03;;;;;;;3.65;0.40;;;;;;;10.64;100.00;102315.88;5024794;28;20461;-46
2024/01/31 09:21:30;;;;;;;2.40;0.20;;;;;;;10.60;100.00;102320.63;5031661;28;20042;-46
2024/01/31 09:23:56;;;;;;;0.52;0.17;;;;;;;10.53;100.00;102316.88;5017862;28;20029;-44
2024/01/31 09:26:21;;;;;;;4.47;0.28;;;;;;;10.26;100.00;102301.75;5020302;28;20504;-45
2024/01/31 09:28:47;;;;;;;0.50;0.08;;;;;;;10.50;100.00;102311.03;5013871;28;20138;-44
2024/01/31 09:31:25;;;;;;;0.73;0.28;;;;;;;10.54;100.00;102312.44;5018754;28;20037;-47
2024/01/31 09:33:52;;;;;;;6.75;1.05;;;;;;;10.51;99.78;102302.94;5015792;28;20188;-47
2024/01/31 09:36:18;;;;;;;3.50;0.35;;;;;;;10.34;99.03;102298.41;5015025;28;20033;-49
2024/01/31 09:38:44;;;;;;;0.80;0.40;;;;;;;10.38;99.67;102299.81;5016865;28;20025;-45
2024/01/31 09:41:10;;;;;;;1.83;0.10;;;;;;;10.47;99.62;102291.78;5019914;28;20057;-50
2024/01/31 09:43:35;;;;;;;3.35;0.30;;;;;;;10.51;99.78;102295.00;5023126;28;20187;-47
2024/01/31 09:46:05;;;;;;;1.95;0.45;;;;;;;10.67;99.90;102297.00;5026308;28;20040;-49
2024/01/31 09:48:31;;;;;;;0.47;0.10;;;;;;;10.36;99.05;102288.50;5018919;28;20041;-50
2024/01/31 09:51:05;;;;;;;3.67;0.30;;;;;;;10.38;100.00;102294.50;5021636;28;20071;-47
2024/01/31 09:53:33;;;;;;;1.67;0.17;;;;;;;10.47;100.00;102306.88;5016542;28;20045;-47
2024/01/31 09:55:59;;;;;;;1.75;0.73;;;;;;;10.76;99.09;102300.59;5021981;28;20508;-46
2024/01/31 09:58:25;;;;;;;4.97;0.15;;;;;;;10.37;99.04;102304.25;5015497;28;20029;-50
2024/01/31 10:00:51;;;;;;;2.53;0.25;;;;;;;10.59;98.62;102308.34;5021481;28;20030;-46
2024/01/31 10:03:17;;;;;;;2.50;0.63;;;;;;;10.89;97.67;102306.38;5015651;28;20033;-50
2024/01/31 10:05:42;;;;;;;4.70;0.30;;;;;;;10.78;97.69;102307.41;5019633;28;20033;-49
2024/01/31 10:08:08;;;;;;;0.68;0.50;;;;;;;10.91;97.93;102307.06;5019510;28;20044;-45
2024/01/31 10:10:33;;;;;;;1.25;0.08;;;;;;;10.98;97.56;102310.81;5019187;28;20346;-49
2024/01/31 10:12:59;;;;;;;4.72;0.00;;;;;;;10.87;97.87;102316.34;5018142;28;20117;-46
2024/01/31 10:15:24;;;;;;;4.05;0.47;;;;;;;10.98;97.77;102324.06;5019646;28;20116;-47
2024/01/31 10:17:49;;;;;;;0.60;0.20;;;;;;;11.02;97.38;102319.28;5018212;28;20087;-45
2024/01/31 10:20:15;;;;;;;4.65;0.63;;;;;;;10.82;96.88;102324.72;5021422;28;20470;-46
2024/01/31 10:22:41;;;;;;;8.68;0.32;;;;;;;10.98;97.51;102323.25;5017833;28;20025;-49
2024/01/31 10:25:07;;;;;;;4.80;0.20;;;;;;;11.08;97.29;102324.03;5013224;28;20030;-48
2024/01/31 10:27:35;;;;;;;6.28;0.43;;;;;;;10.94;97.76;102327.16;5018632;28;20497;-49
2024/01/31 10:30:07;;;;;;;2.85;0.30;;;;;;;10.51;98.22;102326.81;5023840;28;20060;-49
2024/01/31 10:32:34;;;;;;;8.38;0.17;;;;;;;10.87;97.99;102326.94;5014273;28;20044;-49
2024/01/31 10:35:02;;;;;;;1.70;0.25;;;;;;;10.97;98.60;102322.41;5017739;28;20045;-46
2024/01/31 10:37:29;;;;;;;4.20;0.35;;;;;;;10.94;97.90;102320.03;5014571;28;20037;-48
2024/01/31 10:39:55;;;;;;;2.63;0.10;;;;;;;11.06;98.05;102310.91;5019922;28;20090;-46
2024/01/31 10:42:21;;;;;;;2.70;0.50;;;;;;;11.34;97.57;102326.78;5015040;28;20029;-48
2024/01/31 10:44:48;;;;;;;2.22;0.77;;;;;;;10.95;97.09;102334.16;5022100;28;20113;-47
2024/01/31 10:47:14;;;;;;;3.60;0.75;;;;;;;11.35;96.47;102320.47;5015534;28;20083;-51
2024/01/31 10:49:39;;;;;;;3.70;0.30;;;;;;;11.36;96.44;102316.84;5013155;28;20033;-46
2024/01/31 10:52:09;;;;;;;4.55;0.32;;;;;;;11.49;96.64;102316.47;5012482;28;20037;-49
2024/01/31 10:54:38;;;;;;;5.28;0.98;;;;;;;11.34;96.22;102318.81;5013343;28;20033;-45
2024/01/31 10:57:06;;;;;;;1.27;0.08;;;;;;;11.38;96.37;102319.34;5015375;28;20040;-48
2024/01/31 10:59:36;;;;;;;4.13;0.28;;;;;;;11.18;95.93;102318.63;5015404;28;20568;-45
2024/01/31 11:02:01;;;;;;;3.80;0.20;;;;;;;11.26;96.26;102324.88;5012954;28;20476;-48
2024/01/31 11:04:27;;;;;;;2.17;0.80;;;;;;;11.12;95.91;102309.44;5018266;28;20040;-46
2024/01/31 11:06:53;;;;;;;2.15;0.20;;;;;;;11.04;96.18;102317.34;5018042;28;20030;-48
2024/01/31 11:09:22;;;;;;;2.60;0.52;;;;;;;11.29;96.14;102313.94;5022321;28;20033;-45
2024/01/31 11:12:05;;;;;;;5.10;1.38;;;;;;;11.01;95.48;102291.94;5017730;28;20050;-45
2024/01/31 11:14:32;;;;;;;6.35;0.45;;;;;;;11.40;95.54;102275.72;5020877;28;20084;-47